LEMHLIEE

Guest
Details From LEMH - Menorca
To LIEE - Cagliari Elmas
Flight Number -
Tags Generated
Created
Modified
Stats Distance 226 nm / 419 km
Max Altitude 0 ft / 0 m
Waypoints 3
Social Downloads 4
Likes 0
Share VATSIM

Download

Looking for another format? Having issues loading an existing format? Contact us
Advertisement - Login to hide

Notes

Generated

Route

LEMH CAG01 LIEE

ID Type Via Altitude Latitude Longitude Leg Dist Tot Dist Heading (true) Name
O LEMH APT - 0 ft / 0 m 39.85339˚ 4.21914˚ - 0 nm - -
CAG01 FIX - 0 ft / 0 m 39.26216˚ 9.04088˚ 226 nm 226 nm 97° / 101° -
O LIEE APT - 0 ft / 0 m 39.26081˚ 9.04347˚ 0 nm 226 nm 124° / 124° -

Altitude Profile

Advertisement - Login to hide

Weather


0- 5 10 15 20 25 30 35+ Temperature / ° C

Clouds and Precipitation
Forecast for 2018-05-26 06:00 UTC. Updated 4 hours ago

Ground ~20,000 ft ~40,000 ft Winds

LEMH

Details ICAO LEMH (MAH)
Name Menorca
Region Spain
Timezone Europe/Madrid (UTC+2.0)
Stats Elevation 298 ft / 91 m (AMSL)
Location 39.862221° 4.219762°
Runways 2
Magnetic Variation 1.373° E

METAR

LEMH 260900Z 11015KT 070V140 CAVOK 22/17 Q1015

Decode

TAF

TAF LEMH 260800Z 2609/2709 11009KT 9999 FEW040 TX24/2612Z TN16/2706Z PROB40 TEMPO 2609/2616 11018G30KT

Decode

Departure Runways

ID Width Length Bearing (true) Bearing (mag) Surface Threshold Offset Overrun Length
01L 148 ft / 45 m 7,723 ft / 2,354 m 8.97° 7.60° Asphalt 0 ft / 0 m 164 ft / 50 m
01R 148 ft / 45 m 6,903 ft / 2,104 m 8.97° 7.60° Asphalt 0 ft / 0 m 0 ft / 0 m
19L 148 ft / 45 m 6,903 ft / 2,104 m 188.97° 187.60° Asphalt 0 ft / 0 m 0 ft / 0 m
19R 148 ft / 45 m 7,723 ft / 2,354 m 188.97° 187.60° Asphalt 0 ft / 0 m 164 ft / 50 m

LIEE

Details ICAO LIEE (CAG)
Name Cagliari Elmas
Region Italy
Timezone Europe/Rome (UTC+2.0)
Stats Elevation 13 ft / 4 m (AMSL)
Location 39.251475° 9.054291°
Runways 1
Magnetic Variation 2.343° E

METAR

LIEE 260850Z 17007KT CAVOK 23/14 Q1017

Decode

TAF

TAF LIEE 260500Z 2606/2706 VRB04KT CAVOK BECMG 2608/2610 16012KT BECMG 2617/2619 VRB04KT

Decode

Destination Runways

ID Width Length Bearing (true) Bearing (mag) Surface Threshold Offset Overrun Length
14 148 ft / 45 m 9,157 ft / 2,791 m 138.08° 135.74° Asphalt 0 ft / 0 m 187 ft / 57 m
32 148 ft / 45 m 9,157 ft / 2,791 m 318.09° 315.75° Asphalt 0 ft / 0 m 0 ft / 0 m

Approach Navaids

Runway Type Ident Frequency Range Bearing (true) Bearing (mag) Slope Elevation
32 Localiser IEL 109.50 MHz 18 nm / 33 km 318.12° 315.77° - 7 ft / 2 m (AMSL)
32 Glidescope IEL 109.50 MHz 10 nm / 19 km 318.08° 315.74° 3.00° 9 ft / 3 m (AMSL)
32 DME IEL 109.50 MHz 18 nm / 33 km - - - 26 ft / 8 m (AMSL)

Popular Alternatives